createdAt,value
2022-09-30T00:26:02.526Z,10.25
2022-09-30T00:28:36.657Z,10.52
2022-09-30T00:31:06.546Z,10.52
2022-09-30T00:33:34.362Z,11.60
2022-09-30T00:36:01.189Z,11.70
2022-09-30T00:38:27.981Z,11.52
2022-09-30T00:40:56.186Z,11.20
2022-09-30T00:43:51.628Z,11.80
2022-09-30T00:46:44.598Z,11.43
2022-09-30T00:51:54.368Z,11.48
2022-09-30T00:54:28.380Z,12.50
2022-09-30T00:57:13.743Z,11.95
2022-09-30T00:59:45.168Z,11.98
2022-09-30T01:02:13.551Z,11.93
2022-09-30T01:04:42.925Z,11.75
2022-09-30T01:07:10.379Z,11.45
2022-09-30T01:09:40.539Z,10.95
2022-09-30T01:12:27.140Z,10.73
2022-09-30T01:15:23.375Z,11.05
2022-09-30T01:18:18.848Z,10.38
2022-09-30T01:21:05.783Z,10.25
2022-09-30T01:23:32.264Z,10.52
2022-09-30T01:26:43.286Z,10.93
2022-09-30T01:29:19.795Z,10.52
2022-09-30T01:32:29.425Z,11.95
2022-09-30T01:35:30.603Z,11.35
2022-09-30T01:38:23.150Z,11.12
2022-09-30T01:41:04.289Z,11.63
2022-09-30T01:44:06.439Z,11.63
2022-09-30T01:47:29.974Z,11.12
2022-09-30T01:53:50.928Z,11.02
2022-09-30T01:56:52.887Z,10.85
2022-09-30T01:59:29.507Z,10.40
2022-09-30T02:02:02.317Z,11.20
2022-09-30T02:07:29.004Z,10.77
2022-09-30T02:10:02.916Z,11.88
2022-09-30T02:12:34.975Z,11.95
2022-09-30T02:15:11.802Z,11.93
2022-09-30T02:17:48.895Z,11.65
2022-09-30T02:20:26.469Z,10.88
2022-09-30T02:26:42.584Z,10.45
2022-09-30T02:29:22.539Z,11.50
2022-09-30T02:31:58.242Z,11.80
2022-09-30T02:34:35.217Z,12.43
2022-09-30T02:37:15.724Z,12.27
2022-09-30T02:39:51.214Z,12.40
2022-09-30T02:42:37.529Z,14.45
2022-09-30T02:45:12.328Z,13.62
2022-09-30T02:47:59.072Z,14.80
2022-09-30T02:50:44.011Z,15.23
2022-09-30T02:53:48.061Z,14.32
2022-09-30T03:00:20.655Z,15.20
2022-09-30T03:02:47.377Z,14.70
2022-09-30T03:05:14.301Z,14.85
2022-09-30T03:07:41.711Z,14.45
2022-09-30T03:10:16.564Z,14.10
2022-09-30T03:13:23.973Z,13.70
2022-09-30T03:16:02.677Z,13.23
2022-09-30T03:18:43.635Z,13.27
2022-09-30T03:21:34.456Z,13.27
2022-09-30T03:24:21.573Z,13.40
2022-09-30T03:27:06.659Z,13.13
2022-09-30T03:29:57.265Z,13.90
2022-09-30T03:32:50.176Z,13.82
2022-09-30T03:35:21.748Z,13.88
2022-09-30T03:38:16.372Z,13.77
2022-09-30T03:40:57.625Z,13.00
2022-09-30T03:43:38.597Z,13.18
2022-09-30T03:46:34.482Z,13.45
2022-09-30T03:49:05.148Z,13.25
2022-09-30T03:51:32.665Z,13.43
2022-09-30T03:53:59.519Z,13.00
2022-09-30T03:56:29.678Z,13.40
2022-09-30T03:58:56.756Z,12.65
2022-09-30T04:01:47.601Z,13.27
2022-09-30T04:04:14.339Z,12.37
2022-09-30T04:06:40.860Z,13.73
2022-09-30T04:09:07.509Z,12.68
2022-09-30T04:11:34.172Z,12.60
2022-09-30T04:14:01.615Z,12.95
2022-09-30T04:20:24.216Z,13.30
2022-09-30T04:22:50.824Z,13.40
2022-09-30T04:25:17.378Z,14.15
2022-09-30T04:27:43.929Z,13.45
2022-09-30T04:30:11.052Z,13.85
2022-09-30T04:32:37.589Z,13.60
2022-09-30T04:35:30.125Z,12.70
2022-09-30T04:37:56.796Z,13.10
2022-09-30T04:40:23.377Z,13.95
2022-09-30T04:42:50.035Z,12.98
2022-09-30T04:45:16.691Z,11.65
2022-09-30T04:47:45.333Z,12.35
2022-09-30T04:50:43.049Z,13.10
2022-09-30T04:54:22.375Z,13.20
2022-09-30T04:56:49.005Z,12.37
2022-09-30T04:59:15.575Z,12.75
2022-09-30T05:01:44.674Z,12.65
2022-09-30T05:04:12.365Z,13.23
2022-09-30T05:06:42.235Z,13.65
2022-09-30T05:09:08.949Z,13.70
2022-09-30T05:11:38.240Z,13.52
2022-09-30T05:14:09.195Z,13.23
2022-09-30T05:16:36.243Z,13.35
2022-09-30T05:19:03.256Z,13.40
2022-09-30T05:21:30.230Z,13.25
2022-09-30T05:23:57.038Z,14.40
2022-09-30T05:26:23.637Z,14.02
2022-09-30T05:28:50.235Z,14.20
2022-09-30T07:35:16.930Z,11.85
2022-09-30T07:37:43.780Z,12.10
2022-09-30T07:40:10.894Z,13.32
2022-09-30T07:42:45.591Z,13.82
2022-09-30T07:45:38.199Z,12.55
2022-09-30T07:48:24.831Z,13.18
2022-09-30T07:50:54.199Z,12.75
2022-09-30T07:53:21.103Z,12.73
2022-09-30T07:55:47.783Z,11.57
2022-09-30T07:58:14.729Z,11.02
2022-09-30T08:07:16.035Z,11.35
2022-09-30T08:09:42.891Z,11.98
2022-09-30T08:12:09.895Z,11.60
2022-09-30T08:14:36.645Z,12.00
2022-09-30T08:17:03.271Z,13.02
2022-09-30T08:19:30.724Z,12.65
2022-09-30T08:21:58.197Z,12.15
2022-09-30T08:24:26.295Z,12.55
2022-09-30T08:26:53.482Z,12.02
2022-09-30T08:29:35.721Z,12.45
2022-09-30T08:32:02.753Z,14.02
2022-09-30T08:34:47.676Z,12.60
2022-09-30T08:37:14.298Z,13.00
2022-09-30T08:39:42.434Z,12.77
2022-09-30T08:42:42.652Z,14.15
2022-09-30T08:45:13.614Z,13.50
2022-09-30T08:47:49.133Z,13.07
2022-09-30T08:54:40.531Z,13.43
2022-09-30T08:57:07.223Z,13.48
2022-09-30T08:59:45.775Z,12.85
2022-09-30T09:02:55.065Z,12.68
2022-09-30T09:05:49.929Z,11.90
2022-09-30T09:08:49.346Z,11.02
2022-09-30T09:11:41.262Z,12.15
2022-09-30T09:14:18.245Z,10.18
2022-09-30T09:16:57.574Z,9.90
2022-09-30T09:19:29.761Z,10.70
2022-09-30T09:22:01.796Z,9.40
2022-09-30T09:24:40.266Z,8.20
2022-09-30T09:27:19.865Z,7.25
2022-09-30T09:30:06.629Z,7.53
2022-09-30T09:32:34.669Z,6.55
2022-09-30T09:35:15.623Z,6.70
2022-09-30T09:38:03.873Z,6.25
2022-09-30T09:40:42.651Z,6.15
2022-09-30T09:43:27.656Z,5.03
2022-09-30T09:46:15.087Z,5.05
2022-09-30T09:48:44.897Z,4.65
2022-09-30T09:51:36.546Z,4.60
2022-09-30T09:54:08.967Z,4.37
2022-09-30T09:56:37.923Z,4.47
2022-09-30T09:59:09.486Z,6.03
2022-09-30T10:01:54.634Z,4.43
2022-09-30T10:04:29.850Z,4.72
2022-09-30T10:07:00.638Z,3.92
2022-09-30T10:09:36.243Z,4.70
2022-09-30T10:12:05.803Z,4.60
2022-09-30T10:15:00.232Z,4.37
2022-09-30T10:17:33.169Z,4.00
2022-09-30T10:20:06.625Z,4.43
2022-09-30T10:22:35.134Z,4.95
2022-09-30T10:25:23.679Z,4.32
2022-09-30T10:28:16.260Z,4.47
2022-09-30T10:30:51.163Z,4.15
2022-09-30T10:33:31.365Z,3.87
2022-09-30T10:36:06.227Z,4.20
2022-09-30T10:38:34.772Z,3.22
2022-09-30T10:41:03.680Z,3.22
2022-09-30T10:43:52.410Z,3.35
2022-09-30T10:46:39.691Z,3.50
2022-09-30T10:49:24.751Z,3.00
2022-09-30T10:51:51.682Z,3.08
2022-09-30T10:54:50.632Z,2.72
2022-09-30T10:57:21.048Z,3.12
2022-09-30T10:59:48.974Z,3.20
2022-09-30T11:02:34.650Z,3.50
2022-09-30T11:05:01.222Z,3.15
2022-09-30T11:07:44.367Z,2.90
2022-09-30T11:10:48.398Z,3.35
2022-09-30T11:13:32.005Z,2.83
2022-09-30T11:16:37.875Z,2.80
2022-09-30T11:19:07.351Z,2.30
2022-09-30T11:21:53.096Z,2.30
2022-09-30T11:24:25.503Z,2.20
2022-09-30T11:27:24.964Z,2.20
2022-09-30T11:30:09.182Z,1.85
2022-09-30T11:33:07.521Z,1.80
2022-09-30T11:35:34.065Z,1.75
2022-09-30T11:38:06.250Z,1.45
2022-09-30T11:40:35.568Z,1.33
2022-09-30T11:43:24.192Z,1.20
2022-09-30T11:46:21.307Z,1.20
2022-09-30T11:49:03.460Z,1.23
2022-09-30T11:51:40.270Z,1.50
2022-09-30T11:54:20.618Z,1.30
2022-09-30T11:57:06.448Z,1.00
2022-09-30T11:59:43.714Z,2.35
2022-09-30T12:02:29.232Z,0.88
2022-09-30T12:05:01.067Z,0.90
2022-09-30T12:07:40.127Z,1.10
2022-09-30T12:10:34.483Z,0.90
2022-09-30T12:13:13.894Z,0.80
2022-09-30T12:15:46.085Z,0.80
2022-09-30T12:18:27.619Z,0.90
2022-09-30T12:20:58.506Z,1.02
2022-09-30T12:23:51.163Z,0.90
2022-09-30T12:26:18.397Z,1.00
2022-09-30T12:29:22.019Z,0.90
2022-09-30T12:32:09.536Z,0.90
2022-09-30T12:34:46.304Z,0.93
2022-09-30T12:41:36.741Z,1.00
2022-09-30T12:44:47.952Z,1.02
2022-09-30T12:47:52.879Z,0.88
2022-09-30T12:50:24.550Z,0.90
2022-09-30T12:52:51.842Z,0.90
2022-09-30T12:55:25.375Z,0.90
2022-09-30T12:57:56.051Z,1.08
2022-09-30T13:00:31.491Z,1.12
2022-09-30T13:03:04.854Z,1.30
2022-09-30T13:05:31.357Z,1.45
2022-09-30T13:08:04.449Z,1.40
2022-09-30T13:10:38.233Z,1.30
2022-09-30T13:13:10.907Z,1.62
2022-09-30T13:15:37.405Z,2.12
2022-09-30T13:18:31.262Z,2.45
2022-09-30T13:21:21.436Z,2.08
2022-09-30T13:23:50.285Z,1.85
2022-09-30T13:26:22.623Z,1.85
2022-09-30T13:28:50.799Z,1.87
2022-09-30T13:31:22.793Z,1.80
2022-09-30T13:34:04.298Z,2.20
2022-09-30T13:36:52.514Z,1.87
2022-09-30T13:39:43.745Z,2.25
2022-09-30T13:42:20.607Z,2.20
2022-09-30T13:45:29.355Z,2.30
2022-09-30T13:48:15.292Z,2.42
2022-09-30T13:50:46.891Z,2.28
2022-09-30T13:53:20.941Z,2.40
2022-09-30T13:55:50.929Z,2.42
2022-09-30T13:58:19.318Z,2.47
2022-09-30T14:00:48.710Z,2.72
2022-09-30T14:03:26.970Z,2.40
2022-09-30T14:06:01.005Z,2.10
2022-09-30T14:08:34.783Z,2.22
2022-09-30T14:11:27.110Z,2.40
2022-09-30T14:14:16.164Z,2.30
2022-09-30T14:16:58.336Z,2.40
2022-09-30T14:19:43.503Z,1.90
2022-09-30T14:22:11.452Z,1.90
2022-09-30T14:24:40.377Z,2.60
2022-09-30T14:27:20.818Z,2.15
2022-09-30T14:30:11.520Z,2.33
2022-09-30T14:32:46.520Z,1.80
2022-09-30T14:35:23.625Z,1.95
2022-09-30T14:37:54.835Z,2.40
2022-09-30T14:40:29.682Z,1.60
2022-09-30T14:43:02.896Z,1.90
2022-09-30T14:45:33.128Z,1.62
2022-09-30T14:48:15.515Z,1.80
2022-09-30T14:50:50.568Z,2.30
2022-09-30T14:53:28.858Z,2.20
2022-09-30T14:56:00.102Z,1.80
2022-09-30T14:58:31.239Z,2.35
2022-09-30T18:19:49.406Z,12.02
2022-09-30T18:48:40.936Z,10.57
2022-09-30T18:51:08.872Z,9.63
2022-09-30T18:53:35.610Z,10.57
2022-09-30T18:56:04.385Z,12.98
2022-09-30T19:04:07.803Z,9.73
2022-09-30T19:06:34.892Z,9.27
2022-09-30T19:09:02.069Z,10.13
2022-09-30T19:11:30.753Z,8.82
2022-09-30T19:31:34.787Z,8.77
2022-09-30T19:34:02.631Z,7.00
2022-09-30T19:36:31.161Z,6.32
2022-09-30T19:47:06.124Z,11.63
2022-09-30T19:49:32.829Z,10.40
2022-09-30T19:51:59.816Z,11.60
2022-09-30T19:55:30.416Z,9.75
2022-09-30T19:58:37.411Z,9.52
2022-09-30T20:01:05.218Z,9.10
2022-09-30T20:03:32.828Z,8.60
2022-09-30T20:06:05.729Z,7.43
2022-09-30T20:11:14.818Z,8.50
2022-09-30T20:13:42.233Z,9.15
2022-09-30T20:16:14.464Z,11.43
2022-09-30T20:18:43.218Z,12.88
2022-09-30T20:21:16.440Z,11.70
2022-09-30T20:23:45.870Z,10.88
2022-09-30T20:26:15.348Z,10.45
2022-09-30T20:28:42.284Z,7.53
2022-09-30T20:31:12.206Z,6.22
2022-09-30T20:36:14.046Z,6.32
2022-09-30T20:38:40.621Z,7.78
2022-09-30T20:41:07.765Z,6.82
2022-09-30T20:43:43.757Z,6.28
2022-09-30T20:46:10.380Z,7.37
2022-09-30T20:48:39.127Z,7.30
2022-09-30T20:51:14.515Z,7.05
2022-09-30T20:53:44.501Z,7.15
2022-09-30T20:56:15.244Z,6.80
2022-09-30T21:01:57.878Z,6.22
2022-09-30T21:04:40.890Z,5.55
2022-09-30T21:07:07.537Z,5.65
2022-09-30T21:09:34.896Z,6.15
2022-09-30T21:12:01.981Z,6.57
2022-09-30T21:14:28.597Z,6.12
2022-09-30T21:16:55.160Z,5.47
2022-09-30T21:19:21.724Z,5.95
2022-09-30T21:21:48.331Z,6.05
2022-09-30T21:24:16.347Z,5.87
2022-09-30T21:26:43.308Z,6.53
2022-09-30T21:29:09.891Z,6.00
2022-09-30T21:31:37.838Z,5.70
2022-09-30T21:34:23.064Z,6.78
2022-09-30T21:36:49.733Z,6.10
2022-09-30T21:39:16.383Z,6.35
2022-09-30T21:41:43.020Z,8.02
2022-09-30T21:44:09.871Z,8.25
2022-09-30T21:46:36.571Z,8.02
2022-09-30T22:02:39.944Z,7.97
2022-09-30T22:05:07.374Z,9.13
2022-09-30T22:35:06.859Z,10.55
2022-09-30T22:37:51.687Z,9.50
2022-09-30T22:40:18.499Z,9.70
2022-09-30T22:42:46.477Z,9.32
2022-09-30T23:21:09.686Z,10.27
2022-09-30T23:23:38.168Z,9.57
2022-09-30T23:26:06.099Z,9.98
2022-09-30T23:28:33.094Z,9.10
2022-09-30T23:31:11.470Z,9.82
2022-09-30T23:33:39.989Z,10.82
2022-09-30T23:36:07.344Z,10.77
2022-09-30T23:38:34.009Z,10.32
2022-09-30T23:41:00.576Z,10.63
2022-09-30T23:43:30.165Z,11.00
2022-09-30T23:46:07.277Z,10.85
2022-09-30T23:48:58.888Z,11.60
2022-09-30T23:51:25.454Z,11.75
2022-09-30T23:53:52.116Z,11.45
2022-09-30T23:56:19.629Z,11.48
2022-09-30T23:58:47.458Z,12.37
